sensor_id;sensor_type;location;lat;lon;timestamp;pressure;altitude;pressure_sealevel;temperature;humidity
74466;BME280;62916;50.044;15.938;2023-11-18T00:02:03;99436.98;;;21.55;51.18
74466;BME280;62916;50.044;15.938;2023-11-18T00:04:34;99436.66;;;21.53;51.10
74466;BME280;62916;50.044;15.938;2023-11-18T00:07:05;99435.25;;;21.51;51.39
74466;BME280;62916;50.044;15.938;2023-11-18T00:09:35;99437.05;;;21.49;51.28
74466;BME280;62916;50.044;15.938;2023-11-18T00:12:07;99438.07;;;21.47;51.18
74466;BME280;62916;50.044;15.938;2023-11-18T00:14:39;99438.85;;;21.45;51.29
74466;BME280;62916;50.044;15.938;2023-11-18T00:17:11;99442.41;;;21.42;51.48
74466;BME280;62916;50.044;15.938;2023-11-18T00:19:42;99444.14;;;21.40;51.66
74466;BME280;62916;50.044;15.938;2023-11-18T00:22:14;99441.77;;;21.38;51.66
74466;BME280;62916;50.044;15.938;2023-11-18T00:24:44;99435.09;;;21.37;51.60
74466;BME280;62916;50.044;15.938;2023-11-18T00:27:15;99432.04;;;21.35;51.81
74466;BME280;62916;50.044;15.938;2023-11-18T00:29:46;99433.14;;;21.34;51.73
74466;BME280;62916;50.044;15.938;2023-11-18T00:32:17;99437.61;;;21.33;51.79
74466;BME280;62916;50.044;15.938;2023-11-18T00:34:48;99442.61;;;21.31;51.80
74466;BME280;62916;50.044;15.938;2023-11-18T00:37:19;99448.09;;;21.28;52.11
74466;BME280;62916;50.044;15.938;2023-11-18T00:39:50;99457.31;;;21.27;51.91
74466;BME280;62916;50.044;15.938;2023-11-18T00:42:21;99460.52;;;21.26;52.28
74466;BME280;62916;50.044;15.938;2023-11-18T00:44:51;99461.30;;;21.24;51.98
74466;BME280;62916;50.044;15.938;2023-11-18T00:47:25;99456.83;;;21.22;52.02
74466;BME280;62916;50.044;15.938;2023-11-18T00:49:56;99463.56;;;21.20;52.05
74466;BME280;62916;50.044;15.938;2023-11-18T00:52:27;99464.13;;;21.17;52.20
74466;BME280;62916;50.044;15.938;2023-11-18T00:54:58;99474.23;;;21.18;52.17
74466;BME280;62916;50.044;15.938;2023-11-18T00:57:29;99478.41;;;21.17;52.19
74466;BME280;62916;50.044;15.938;2023-11-18T01:00:00;99482.52;;;21.15;52.02
74466;BME280;62916;50.044;15.938;2023-11-18T01:02:32;99490.13;;;21.13;52.13
74466;BME280;62916;50.044;15.938;2023-11-18T01:05:03;99491.55;;;21.11;52.32
74466;BME280;62916;50.044;15.938;2023-11-18T01:07:34;99489.05;;;21.10;52.34
74466;BME280;62916;50.044;15.938;2023-11-18T01:10:07;99491.73;;;21.09;52.45
74466;BME280;62916;50.044;15.938;2023-11-18T01:12:39;99493.17;;;21.07;52.46
74466;BME280;62916;50.044;15.938;2023-11-18T01:15:11;99495.86;;;21.06;52.49
74466;BME280;62916;50.044;15.938;2023-11-18T01:17:42;99498.89;;;21.04;52.63
74466;BME280;62916;50.044;15.938;2023-11-18T01:20:14;99499.52;;;21.03;52.53
74466;BME280;62916;50.044;15.938;2023-11-18T01:22:50;99502.03;;;21.02;52.92
74466;BME280;62916;50.044;15.938;2023-11-18T01:25:21;99504.23;;;20.99;52.69
74466;BME280;62916;50.044;15.938;2023-11-18T01:27:52;99502.22;;;20.98;52.86
74466;BME280;62916;50.044;15.938;2023-11-18T01:30:23;99503.96;;;20.96;52.81
74466;BME280;62916;50.044;15.938;2023-11-18T01:32:56;99505.32;;;20.93;53.05
74466;BME280;62916;50.044;15.938;2023-11-18T01:35:27;99501.31;;;20.89;53.08
74466;BME280;62916;50.044;15.938;2023-11-18T01:37:58;99503.23;;;20.89;53.13
74466;BME280;62916;50.044;15.938;2023-11-18T01:40:29;99510.77;;;20.88;53.05
74466;BME280;62916;50.044;15.938;2023-11-18T01:43:00;99512.15;;;20.87;52.90
74466;BME280;62916;50.044;15.938;2023-11-18T01:45:32;99513.69;;;20.86;53.10
74466;BME280;62916;50.044;15.938;2023-11-18T01:48:04;99509.77;;;20.82;53.20
74466;BME280;62916;50.044;15.938;2023-11-18T01:50:35;99519.81;;;20.82;52.92
74466;BME280;62916;50.044;15.938;2023-11-18T01:53:08;99520.91;;;20.80;53.28
74466;BME280;62916;50.044;15.938;2023-11-18T01:55:40;99526.86;;;20.78;53.16
74466;BME280;62916;50.044;15.938;2023-11-18T01:58:11;99526.83;;;20.75;53.19
74466;BME280;62916;50.044;15.938;2023-11-18T02:00:43;99526.73;;;20.75;53.20
74466;BME280;62916;50.044;15.938;2023-11-18T02:03:15;99526.34;;;20.74;53.27
74466;BME280;62916;50.044;15.938;2023-11-18T02:05:47;99525.70;;;20.72;53.15
74466;BME280;62916;50.044;15.938;2023-11-18T02:08:18;99527.45;;;20.72;53.16
74466;BME280;62916;50.044;15.938;2023-11-18T02:10:54;99534.63;;;20.71;53.26
74466;BME280;62916;50.044;15.938;2023-11-18T02:13:29;99536.44;;;20.70;53.19
74466;BME280;62916;50.044;15.938;2023-11-18T02:16:06;99536.36;;;20.69;53.12
74466;BME280;62916;50.044;15.938;2023-11-18T02:18:39;99541.21;;;20.68;53.32
74466;BME280;62916;50.044;15.938;2023-11-18T02:21:12;99540.98;;;20.68;53.26
74466;BME280;62916;50.044;15.938;2023-11-18T02:23:43;99544.45;;;20.67;53.21
74466;BME280;62916;50.044;15.938;2023-11-18T02:26:22;99547.13;;;20.66;53.16
74466;BME280;62916;50.044;15.938;2023-11-18T02:28:53;99553.64;;;20.65;53.11
74466;BME280;62916;50.044;15.938;2023-11-18T02:31:30;99555.23;;;20.64;53.13
74466;BME280;62916;50.044;15.938;2023-11-18T02:34:07;99554.73;;;20.64;53.14
74466;BME280;62916;50.044;15.938;2023-11-18T02:36:43;99557.34;;;20.63;53.00
74466;BME280;62916;50.044;15.938;2023-11-18T02:39:32;99559.33;;;20.61;53.06
74466;BME280;62916;50.044;15.938;2023-11-18T02:42:09;99561.83;;;20.60;53.13
74466;BME280;62916;50.044;15.938;2023-11-18T02:44:42;99564.30;;;20.57;53.16
74466;BME280;62916;50.044;15.938;2023-11-18T02:47:14;99566.89;;;20.57;53.17
74466;BME280;62916;50.044;15.938;2023-11-18T02:49:45;99568.40;;;20.55;53.03
74466;BME280;62916;50.044;15.938;2023-11-18T02:52:18;99577.71;;;20.55;53.04
74466;BME280;62916;50.044;15.938;2023-11-18T02:54:49;99581.02;;;20.53;53.14
74466;BME280;62916;50.044;15.938;2023-11-18T02:57:19;99583.12;;;20.52;53.14
74466;BME280;62916;50.044;15.938;2023-11-18T02:59:51;99585.79;;;20.51;53.00
74466;BME280;62916;50.044;15.938;2023-11-18T03:02:22;99584.74;;;20.49;53.08
74466;BME280;62916;50.044;15.938;2023-11-18T03:04:53;99590.95;;;20.48;52.89
74466;BME280;62916;50.044;15.938;2023-11-18T03:07:24;99593.17;;;20.46;53.04
74466;BME280;62916;50.044;15.938;2023-11-18T03:09:56;99593.05;;;20.45;52.96
74466;BME280;62916;50.044;15.938;2023-11-18T03:12:27;99591.98;;;20.45;53.12
74466;BME280;62916;50.044;15.938;2023-11-18T03:14:58;99594.81;;;20.44;53.03
74466;BME280;62916;50.044;15.938;2023-11-18T03:17:30;99594.33;;;20.42;52.93
74466;BME280;62916;50.044;15.938;2023-11-18T03:20:01;99597.34;;;20.42;52.82
74466;BME280;62916;50.044;15.938;2023-11-18T03:22:32;99597.41;;;20.40;52.76
74466;BME280;62916;50.044;15.938;2023-11-18T03:25:03;99592.19;;;20.39;52.92
74466;BME280;62916;50.044;15.938;2023-11-18T03:27:37;99584.94;;;20.38;52.89
74466;BME280;62916;50.044;15.938;2023-11-18T03:30:10;99580.95;;;20.37;52.89
74466;BME280;62916;50.044;15.938;2023-11-18T03:32:41;99586.28;;;20.36;52.88
74466;BME280;62916;50.044;15.938;2023-11-18T03:35:12;99583.63;;;20.35;53.17
74466;BME280;62916;50.044;15.938;2023-11-18T03:37:44;99581.28;;;20.35;53.15
74466;BME280;62916;50.044;15.938;2023-11-18T03:40:16;99581.79;;;20.35;53.03
74466;BME280;62916;50.044;15.938;2023-11-18T03:42:47;99586.86;;;20.34;53.00
74466;BME280;62916;50.044;15.938;2023-11-18T03:45:18;99591.27;;;20.32;52.95
74466;BME280;62916;50.044;15.938;2023-11-18T03:47:50;99589.08;;;20.31;53.00
74466;BME280;62916;50.044;15.938;2023-11-18T03:50:21;99588.65;;;20.30;52.84
74466;BME280;62916;50.044;15.938;2023-11-18T03:52:52;99590.98;;;20.28;52.92
74466;BME280;62916;50.044;15.938;2023-11-18T03:55:23;99591.23;;;20.27;52.99
74466;BME280;62916;50.044;15.938;2023-11-18T03:57:55;99591.55;;;20.26;53.00
74466;BME280;62916;50.044;15.938;2023-11-18T04:00:27;99591.61;;;20.25;52.99
74466;BME280;62916;50.044;15.938;2023-11-18T04:02:59;99590.34;;;20.24;52.97
74466;BME280;62916;50.044;15.938;2023-11-18T04:05:30;99592.48;;;20.24;52.87
74466;BME280;62916;50.044;15.938;2023-11-18T04:08:02;99601.85;;;20.23;52.89
74466;BME280;62916;50.044;15.938;2023-11-18T04:10:33;99602.83;;;20.22;53.09
74466;BME280;62916;50.044;15.938;2023-11-18T04:13:04;99602.16;;;20.21;53.10
74466;BME280;62916;50.044;15.938;2023-11-18T04:15:35;99602.83;;;20.22;53.01
74466;BME280;62916;50.044;15.938;2023-11-18T04:18:07;99601.04;;;20.20;53.09
74466;BME280;62916;50.044;15.938;2023-11-18T04:20:38;99596.88;;;20.19;52.85
74466;BME280;62916;50.044;15.938;2023-11-18T04:23:09;99596.67;;;20.19;52.83
74466;BME280;62916;50.044;15.938;2023-11-18T04:25:41;99591.56;;;20.17;52.94
74466;BME280;62916;50.044;15.938;2023-11-18T04:28:12;99596.78;;;20.15;52.94
74466;BME280;62916;50.044;15.938;2023-11-18T04:30:43;99596.92;;;20.14;52.83
74466;BME280;62916;50.044;15.938;2023-11-18T04:33:14;99595.98;;;20.13;52.87
74466;BME280;62916;50.044;15.938;2023-11-18T04:35:47;99596.58;;;20.11;53.08
74466;BME280;62916;50.044;15.938;2023-11-18T04:38:18;99598.78;;;20.10;53.12
74466;BME280;62916;50.044;15.938;2023-11-18T04:40:49;99599.73;;;20.10;52.95
74466;BME280;62916;50.044;15.938;2023-11-18T04:43:20;99598.88;;;20.08;52.96
74466;BME280;62916;50.044;15.938;2023-11-18T04:46:04;99599.21;;;20.08;52.75
74466;BME280;62916;50.044;15.938;2023-11-18T04:48:35;99606.55;;;20.07;52.88
74466;BME280;62916;50.044;15.938;2023-11-18T04:51:10;99606.80;;;20.06;52.89
74466;BME280;62916;50.044;15.938;2023-11-18T04:53:42;99603.55;;;20.05;52.99
74466;BME280;62916;50.044;15.938;2023-11-18T04:56:13;99606.58;;;20.05;52.97
74466;BME280;62916;50.044;15.938;2023-11-18T04:58:47;99606.71;;;20.04;52.94
74466;BME280;62916;50.044;15.938;2023-11-18T05:01:18;99611.11;;;20.04;52.91
74466;BME280;62916;50.044;15.938;2023-11-18T05:03:49;99616.20;;;20.03;52.86
74466;BME280;62916;50.044;15.938;2023-11-18T05:06:20;99610.98;;;20.02;52.88
74466;BME280;62916;50.044;15.938;2023-11-18T05:08:52;99605.56;;;19.98;52.78
74466;BME280;62916;50.044;15.938;2023-11-18T05:11:24;99606.45;;;19.99;52.82
74466;BME280;62916;50.044;15.938;2023-11-18T05:13:55;99608.27;;;19.97;52.74
74466;BME280;62916;50.044;15.938;2023-11-18T05:16:26;99610.15;;;19.95;52.99
74466;BME280;62916;50.044;15.938;2023-11-18T05:18:57;99611.25;;;19.95;52.83
74466;BME280;62916;50.044;15.938;2023-11-18T05:21:28;99614.82;;;19.94;52.81
74466;BME280;62916;50.044;15.938;2023-11-18T05:23:59;99618.66;;;19.93;52.83
74466;BME280;62916;50.044;15.938;2023-11-18T05:26:30;99621.89;;;19.92;52.87
74466;BME280;62916;50.044;15.938;2023-11-18T05:29:01;99620.33;;;19.90;52.83
74466;BME280;62916;50.044;15.938;2023-11-18T05:31:32;99619.64;;;19.90;52.85
74466;BME280;62916;50.044;15.938;2023-11-18T05:34:03;99621.80;;;19.89;53.02
74466;BME280;62916;50.044;15.938;2023-11-18T05:36:34;99621.04;;;19.87;52.88
74466;BME280;62916;50.044;15.938;2023-11-18T05:39:07;99633.08;;;19.84;52.70
74466;BME280;62916;50.044;15.938;2023-11-18T05:41:39;99633.45;;;19.82;52.63
74466;BME280;62916;50.044;15.938;2023-11-18T05:44:10;99634.25;;;19.81;52.62
74466;BME280;62916;50.044;15.938;2023-11-18T05:46:47;99632.20;;;19.78;52.44
74466;BME280;62916;50.044;15.938;2023-11-18T05:49:21;99631.79;;;19.75;52.09
74466;BME280;62916;50.044;15.938;2023-11-18T05:51:53;99630.37;;;19.73;52.11
74466;BME280;62916;50.044;15.938;2023-11-18T05:54:24;99633.44;;;19.71;51.99
74466;BME280;62916;50.044;15.938;2023-11-18T05:56:55;99637.46;;;19.69;51.79
74466;BME280;62916;50.044;15.938;2023-11-18T05:59:29;99639.23;;;19.66;51.75
74466;BME280;62916;50.044;15.938;2023-11-18T06:02:00;99648.10;;;19.64;51.54
74466;BME280;62916;50.044;15.938;2023-11-18T06:04:33;99646.56;;;19.63;51.48
74466;BME280;62916;50.044;15.938;2023-11-18T06:07:04;99650.17;;;19.61;51.42
74466;BME280;62916;50.044;15.938;2023-11-18T06:09:35;99655.08;;;19.60;51.39
74466;BME280;62916;50.044;15.938;2023-11-18T06:12:07;99655.43;;;19.59;51.11
74466;BME280;62916;50.044;15.938;2023-11-18T06:14:39;99658.89;;;19.56;51.00
74466;BME280;62916;50.044;15.938;2023-11-18T06:17:11;99665.33;;;19.55;50.85
74466;BME280;62916;50.044;15.938;2023-11-18T06:19:42;99667.30;;;19.55;50.86
74466;BME280;62916;50.044;15.938;2023-11-18T06:22:13;99670.77;;;19.53;50.64
74466;BME280;62916;50.044;15.938;2023-11-18T06:24:44;99669.60;;;19.52;50.61
74466;BME280;62916;50.044;15.938;2023-11-18T06:27:16;99668.09;;;19.49;50.51
74466;BME280;62916;50.044;15.938;2023-11-18T06:29:50;99666.19;;;19.47;50.48
74466;BME280;62916;50.044;15.938;2023-11-18T06:32:24;99673.22;;;19.46;50.33
74466;BME280;62916;50.044;15.938;2023-11-18T06:34:56;99675.56;;;19.44;50.27
74466;BME280;62916;50.044;15.938;2023-11-18T06:37:33;99680.66;;;19.42;50.31
74466;BME280;62916;50.044;15.938;2023-11-18T06:40:06;99680.52;;;19.39;50.13
74466;BME280;62916;50.044;15.938;2023-11-18T06:42:45;99683.95;;;19.38;50.10
74466;BME280;62916;50.044;15.938;2023-11-18T06:45:17;99686.55;;;19.37;50.22
74466;BME280;62916;50.044;15.938;2023-11-18T06:47:48;99687.18;;;19.36;50.14
74466;BME280;62916;50.044;15.938;2023-11-18T06:50:19;99689.95;;;19.35;50.03
74466;BME280;62916;50.044;15.938;2023-11-18T06:52:54;99691.41;;;19.34;49.98
74466;BME280;62916;50.044;15.938;2023-11-18T06:55:25;99695.55;;;19.33;49.93
74466;BME280;62916;50.044;15.938;2023-11-18T06:57:57;99689.83;;;19.32;49.74
74466;BME280;62916;50.044;15.938;2023-11-18T07:00:27;99688.55;;;19.31;49.71
74466;BME280;62916;50.044;15.938;2023-11-18T07:02:58;99692.48;;;19.31;49.57
74466;BME280;62916;50.044;15.938;2023-11-18T07:05:30;99690.69;;;19.31;49.49
74466;BME280;62916;50.044;15.938;2023-11-18T07:08:02;99693.66;;;19.31;49.42
74466;BME280;62916;50.044;15.938;2023-11-18T07:10:33;99697.65;;;19.31;49.31
74466;BME280;62916;50.044;15.938;2023-11-18T07:13:04;99697.26;;;19.32;49.24
74466;BME280;62916;50.044;15.938;2023-11-18T07:15:37;99707.04;;;19.32;49.13
74466;BME280;62916;50.044;15.938;2023-11-18T07:18:07;99704.10;;;19.33;49.16
74466;BME280;62916;50.044;15.938;2023-11-18T07:20:38;99712.98;;;19.34;48.99
74466;BME280;62916;50.044;15.938;2023-11-18T07:23:09;99717.16;;;19.35;48.96
74466;BME280;62916;50.044;15.938;2023-11-18T07:25:41;99714.35;;;19.36;48.87
74466;BME280;62916;50.044;15.938;2023-11-18T07:28:14;99718.95;;;19.38;48.84
74466;BME280;62916;50.044;15.938;2023-11-18T07:30:46;99717.20;;;19.38;48.76
74466;BME280;62916;50.044;15.938;2023-11-18T07:33:18;99721.86;;;19.39;48.61
74466;BME280;62916;50.044;15.938;2023-11-18T07:35:49;99723.70;;;19.41;48.68
74466;BME280;62916;50.044;15.938;2023-11-18T07:38:22;99725.79;;;19.41;48.46
74466;BME280;62916;50.044;15.938;2023-11-18T07:40:53;99732.14;;;19.45;48.61
74466;BME280;62916;50.044;15.938;2023-11-18T07:43:26;99736.56;;;19.47;48.80
74466;BME280;62916;50.044;15.938;2023-11-18T07:45:58;99735.27;;;19.50;48.86
74466;BME280;62916;50.044;15.938;2023-11-18T07:48:29;99739.45;;;19.54;49.05
74466;BME280;62916;50.044;15.938;2023-11-18T07:51:01;99733.40;;;19.56;49.14
74466;BME280;62916;50.044;15.938;2023-11-18T07:53:32;99731.16;;;19.61;49.13
74466;BME280;62916;50.044;15.938;2023-11-18T07:56:03;99726.56;;;19.64;49.26
74466;BME280;62916;50.044;15.938;2023-11-18T07:58:36;99728.03;;;19.67;49.27
74466;BME280;62916;50.044;15.938;2023-11-18T08:01:07;99733.96;;;19.71;49.49
74466;BME280;62916;50.044;15.938;2023-11-18T08:03:38;99742.70;;;19.74;49.40
74466;BME280;62916;50.044;15.938;2023-11-18T08:06:11;99745.73;;;19.78;49.53
74466;BME280;62916;50.044;15.938;2023-11-18T08:08:42;99745.43;;;19.80;49.56
74466;BME280;62916;50.044;15.938;2023-11-18T08:11:13;99747.00;;;19.82;49.72
74466;BME280;62916;50.044;15.938;2023-11-18T08:13:44;99746.42;;;19.86;49.66
74466;BME280;62916;50.044;15.938;2023-11-18T08:16:15;99748.27;;;19.88;49.60
74466;BME280;62916;50.044;15.938;2023-11-18T08:18:47;99750.15;;;19.91;49.64
74466;BME280;62916;50.044;15.938;2023-11-18T08:21:18;99753.80;;;19.93;49.67
74466;BME280;62916;50.044;15.938;2023-11-18T08:23:50;99759.02;;;19.95;49.58
74466;BME280;62916;50.044;15.938;2023-11-18T08:26:22;99758.05;;;19.97;49.57
74466;BME280;62916;50.044;15.938;2023-11-18T08:28:53;99759.48;;;20.01;49.54
74466;BME280;62916;50.044;15.938;2023-11-18T08:31:24;99761.34;;;20.01;49.54
74466;BME280;62916;50.044;15.938;2023-11-18T08:33:57;99763.77;;;20.04;49.38
74466;BME280;62916;50.044;15.938;2023-11-18T08:36:29;99770.21;;;20.06;49.55
74466;BME280;62916;50.044;15.938;2023-11-18T08:39:02;99773.96;;;20.08;49.47
74466;BME280;62916;50.044;15.938;2023-11-18T08:41:33;99775.92;;;20.09;49.52
74466;BME280;62916;50.044;15.938;2023-11-18T08:44:05;99781.80;;;20.13;49.38
74466;BME280;62916;50.044;15.938;2023-11-18T08:46:53;99784.34;;;20.15;49.40
74466;BME280;62916;50.044;15.938;2023-11-18T08:49:24;99786.98;;;20.15;49.53
74466;BME280;62916;50.044;15.938;2023-11-18T08:51:55;99792.63;;;20.19;49.43
74466;BME280;62916;50.044;15.938;2023-11-18T08:54:27;99794.64;;;20.21;49.40
74466;BME280;62916;50.044;15.938;2023-11-18T08:57:07;99797.31;;;20.24;49.39
74466;BME280;62916;50.044;15.938;2023-11-18T08:59:53;99803.46;;;20.26;49.41
74466;BME280;62916;50.044;15.938;2023-11-18T09:02:28;99806.42;;;20.28;49.27
74466;BME280;62916;50.044;15.938;2023-11-18T09:05:05;99811.92;;;20.30;49.34
74466;BME280;62916;50.044;15.938;2023-11-18T09:07:42;99808.08;;;20.32;49.27
74466;BME280;62916;50.044;15.938;2023-11-18T09:10:18;99810.25;;;20.33;49.17
74466;BME280;62916;50.044;15.938;2023-11-18T09:12:50;99809.74;;;20.34;49.24
74466;BME280;62916;50.044;15.938;2023-11-18T09:15:24;99809.29;;;20.35;49.28
74466;BME280;62916;50.044;15.938;2023-11-18T09:17:56;99807.12;;;20.37;49.19
74466;BME280;62916;50.044;15.938;2023-11-18T09:20:27;99816.67;;;20.39;49.19
74466;BME280;62916;50.044;15.938;2023-11-18T09:22:58;99821.97;;;20.40;49.30
74466;BME280;62916;50.044;15.938;2023-11-18T09:25:29;99830.23;;;20.42;49.30
74466;BME280;62916;50.044;15.938;2023-11-18T09:28:02;99835.05;;;20.44;49.31
74466;BME280;62916;50.044;15.938;2023-11-18T09:30:34;99836.76;;;20.46;49.24
74466;BME280;62916;50.044;15.938;2023-11-18T09:33:08;99843.20;;;20.48;49.32
74466;BME280;62916;50.044;15.938;2023-11-18T09:35:43;99848.46;;;20.51;49.25
74466;BME280;62916;50.044;15.938;2023-11-18T09:38:15;99853.34;;;20.54;49.31
74466;BME280;62916;50.044;15.938;2023-11-18T09:40:47;99859.36;;;20.56;49.67
74466;BME280;62916;50.044;15.938;2023-11-18T09:43:20;99856.96;;;20.60;49.53
74466;BME280;62916;50.044;15.938;2023-11-18T09:45:56;99857.31;;;20.64;49.49
74466;BME280;62916;50.044;15.938;2023-11-18T09:48:27;99855.44;;;20.68;49.59
74466;BME280;62916;50.044;15.938;2023-11-18T09:50:59;99854.50;;;20.71;49.65
74466;BME280;62916;50.044;15.938;2023-11-18T09:53:30;99848.10;;;20.74;49.76
74466;BME280;62916;50.044;15.938;2023-11-18T09:56:10;99851.61;;;20.76;49.70
74466;BME280;62916;50.044;15.938;2023-11-18T09:58:57;99851.38;;;20.80;49.68
74466;BME280;62916;50.044;15.938;2023-11-18T10:01:38;99858.27;;;20.83;49.77
74466;BME280;62916;50.044;15.938;2023-11-18T10:04:14;99858.23;;;20.86;49.65
74466;BME280;62916;50.044;15.938;2023-11-18T10:06:50;99862.81;;;20.88;49.78
74466;BME280;62916;50.044;15.938;2023-11-18T10:09:24;99865.74;;;20.92;49.88
74466;BME280;62916;50.044;15.938;2023-11-18T10:12:09;99866.21;;;20.96;49.76
74466;BME280;62916;50.044;15.938;2023-11-18T10:14:43;99867.50;;;20.99;49.90
74466;BME280;62916;50.044;15.938;2023-11-18T10:17:14;99865.70;;;21.02;49.73
74466;BME280;62916;50.044;15.938;2023-11-18T10:19:55;99870.13;;;21.05;49.92
74466;BME280;62916;50.044;15.938;2023-11-18T10:22:28;99869.20;;;21.09;49.85
74466;BME280;62916;50.044;15.938;2023-11-18T10:25:02;99868.27;;;21.12;49.69
74466;BME280;62916;50.044;15.938;2023-11-18T10:27:34;99874.10;;;21.14;49.71
74466;BME280;62916;50.044;15.938;2023-11-18T10:30:06;99872.53;;;21.13;49.52
74466;BME280;62916;50.044;15.938;2023-11-18T10:32:59;99871.34;;;21.17;49.62
74466;BME280;62916;50.044;15.938;2023-11-18T10:35:36;99868.20;;;21.20;49.49
74466;BME280;62916;50.044;15.938;2023-11-18T10:38:07;99868.95;;;21.24;49.51
74466;BME280;62916;50.044;15.938;2023-11-18T10:40:38;99863.67;;;21.28;49.37
74466;BME280;62916;50.044;15.938;2023-11-18T10:43:10;99862.84;;;21.31;49.37
74466;BME280;62916;50.044;15.938;2023-11-18T10:45:41;99858.76;;;21.36;49.42
74466;BME280;62916;50.044;15.938;2023-11-18T10:48:14;99866.75;;;21.40;49.40
74466;BME280;62916;50.044;15.938;2023-11-18T10:50:48;99867.07;;;21.45;49.49
74466;BME280;62916;50.044;15.938;2023-11-18T10:53:21;99865.30;;;21.49;49.36
74466;BME280;62916;50.044;15.938;2023-11-18T10:55:52;99870.33;;;21.52;49.32
74466;BME280;62916;50.044;15.938;2023-11-18T10:58:24;99863.46;;;21.54;49.27
74466;BME280;62916;50.044;15.938;2023-11-18T11:00:56;99867.82;;;21.59;49.41
74466;BME280;62916;50.044;15.938;2023-11-18T11:03:30;99866.05;;;21.60;49.26
74466;BME280;62916;50.044;15.938;2023-11-18T11:06:16;99868.59;;;21.64;49.41
74466;BME280;62916;50.044;15.938;2023-11-18T11:08:49;99866.01;;;21.66;49.35
74466;BME280;62916;50.044;15.938;2023-11-18T11:11:21;99863.63;;;21.69;49.40
74466;BME280;62916;50.044;15.938;2023-11-18T11:13:58;99866.26;;;21.71;49.05
74466;BME280;62916;50.044;15.938;2023-11-18T11:16:36;99861.60;;;21.73;49.41
74466;BME280;62916;50.044;15.938;2023-11-18T11:19:15;99866.09;;;21.75;49.27
74466;BME280;62916;50.044;15.938;2023-11-18T11:22:00;99866.57;;;21.76;49.22
74466;BME280;62916;50.044;15.938;2023-11-18T11:24:45;99868.41;;;21.77;49.25
74466;BME280;62916;50.044;15.938;2023-11-18T11:27:25;99867.52;;;21.79;49.25
74466;BME280;62916;50.044;15.938;2023-11-18T11:30:13;99860.27;;;21.80;49.25
74466;BME280;62916;50.044;15.938;2023-11-18T11:32:52;99852.41;;;21.81;49.24
74466;BME280;62916;50.044;15.938;2023-11-18T11:35:30;99850.01;;;21.82;49.20
74466;BME280;62916;50.044;15.938;2023-11-18T11:38:02;99844.45;;;21.84;49.37
74466;BME280;62916;50.044;15.938;2023-11-18T11:40:40;99848.04;;;21.86;49.09
74466;BME280;62916;50.044;15.938;2023-11-18T11:43:12;99845.70;;;21.87;49.06
74466;BME280;62916;50.044;15.938;2023-11-18T11:45:51;99845.90;;;21.88;49.17
74466;BME280;62916;50.044;15.938;2023-11-18T11:48:25;99847.66;;;21.89;49.13
74466;BME280;62916;50.044;15.938;2023-11-18T11:51:11;99845.66;;;21.90;49.20
74466;BME280;62916;50.044;15.938;2023-11-18T11:53:54;99847.26;;;21.93;49.19
74466;BME280;62916;50.044;15.938;2023-11-18T11:56:40;99856.77;;;21.95;49.01
74466;BME280;62916;50.044;15.938;2023-11-18T11:59:11;99863.36;;;21.96;48.91
74466;BME280;62916;50.044;15.938;2023-11-18T12:01:42;99866.36;;;21.96;49.00
74466;BME280;62916;50.044;15.938;2023-11-18T12:04:17;99865.20;;;21.98;49.00
74466;BME280;62916;50.044;15.938;2023-11-18T12:06:54;99866.98;;;22.00;48.87
74466;BME280;62916;50.044;15.938;2023-11-18T12:09:41;99867.48;;;22.00;48.93
74466;BME280;62916;50.044;15.938;2023-11-18T12:12:20;99870.92;;;22.01;48.75
74466;BME280;62916;50.044;15.938;2023-11-18T12:14:53;99872.92;;;22.02;48.95
74466;BME280;62916;50.044;15.938;2023-11-18T12:17:26;99879.36;;;22.02;48.76
74466;BME280;62916;50.044;15.938;2023-11-18T12:20:03;99880.30;;;22.04;48.72
74466;BME280;62916;50.044;15.938;2023-11-18T12:23:06;99874.59;;;22.04;48.67
74466;BME280;62916;50.044;15.938;2023-11-18T12:25:45;99877.38;;;22.06;48.74
74466;BME280;62916;50.044;15.938;2023-11-18T12:28:19;99885.09;;;22.08;48.70
74466;BME280;62916;50.044;15.938;2023-11-18T12:30:56;99886.41;;;22.09;48.61
74466;BME280;62916;50.044;15.938;2023-11-18T12:34:03;99884.35;;;22.10;48.50
74466;BME280;62916;50.044;15.938;2023-11-18T12:43:02;99883.59;;;22.09;48.54
74466;BME280;62916;50.044;15.938;2023-11-18T12:46:08;99885.11;;;22.09;48.30
74466;BME280;62916;50.044;15.938;2023-11-18T12:48:46;99878.60;;;22.08;48.15
74466;BME280;62916;50.044;15.938;2023-11-18T12:51:22;99882.59;;;22.08;48.37
74466;BME280;62916;50.044;15.938;2023-11-18T12:53:53;99880.73;;;22.08;48.42
74466;BME280;62916;50.044;15.938;2023-11-18T12:56:25;99880.52;;;22.08;48.42
74466;BME280;62916;50.044;15.938;2023-11-18T12:58:58;99870.71;;;22.06;48.27
74466;BME280;62916;50.044;15.938;2023-11-18T13:01:30;99871.80;;;22.06;48.00
74466;BME280;62916;50.044;15.938;2023-11-18T13:04:04;99879.37;;;22.06;48.17
74466;BME280;62916;50.044;15.938;2023-11-18T13:06:36;99876.67;;;22.05;48.21
74466;BME280;62916;50.044;15.938;2023-11-18T13:09:10;99879.84;;;22.04;47.89
74466;BME280;62916;50.044;15.938;2023-11-18T13:11:59;99876.30;;;22.03;48.17
74466;BME280;62916;50.044;15.938;2023-11-18T13:14:35;99872.20;;;22.02;48.15
74466;BME280;62916;50.044;15.938;2023-11-18T13:17:11;99865.27;;;22.01;48.05
74466;BME280;62916;50.044;15.938;2023-11-18T13:19:45;99862.95;;;22.00;48.01
74466;BME280;62916;50.044;15.938;2023-11-18T13:22:17;99856.60;;;21.99;47.97
74466;BME280;62916;50.044;15.938;2023-11-18T13:24:49;99855.38;;;21.97;47.95
74466;BME280;62916;50.044;15.938;2023-11-18T13:27:21;99857.93;;;21.97;47.80
74466;BME280;62916;50.044;15.938;2023-11-18T13:29:52;99862.17;;;21.96;48.02